This is the latest recevied weather packets stored in our database for station/object KE5SXT-2. If no packets are shown the sender has not sent any weather packets the latest 10 day(s).
| Time | Temp. | Humidity | Pressure | Rain* | Wind** | Luminosity | Snow |
|---|---|---|---|---|---|---|---|
| 1778004622 | 28.33° C | 22% | 1010.8 hPa | 0 mm | - | - | - |
| 1778001022 | 28.33° C | 21% | 1010.9 hPa | 0 mm | - | - | - |
| 1777999247 | 27.78° C | 23% | 1010.7 hPa | 0 mm | - | - | - |
| 1777995622 | 25.56° C | 26% | 1010.7 hPa | 0 mm | - | - | - |
| 1777994422 | 23.89° C | 31% | 1010.4 hPa | 0 mm | - | - | - |
| 1777991422 | 21.67° C | 42% | 1009.9 hPa | 0 mm | - | - | - |
| 1777990825 | 21.11° C | 48% | 1009.7 hPa | 0 mm | - | - | - |
| 1777983622 | 17.22° C | 79% | 1008.4 hPa | 0 mm | - | - | - |
| 1777980622 | 19.44° C | 70% | 1008.6 hPa | 0 mm | - | - | - |
| 1777972821 | 20° C | 70% | 1007.8 hPa | 0 mm | - | - | - |
| 1777972221 | 20° C | 69% | 1008 hPa | 0 mm | - | - | - |
| 1777971646 | 20° C | 69% | 1008 hPa | 0 mm | - | - | - |
| 1777969221 | 21.11° C | 65% | 1008.4 hPa | 0 mm | - | - | - |
| 1777968624 | 21.11° C | 66% | 1008.5 hPa | 0 mm | - | - | - |
| 1777965621 | 22.22° C | 59% | 1008.6 hPa | 0 mm | - | - | - |
| 1777965021 | 22.78° C | 57% | 1008.8 hPa | 0 mm | - | - | - |
| 1777964425 | 22.78° C | 56% | 1008.9 hPa | 0 mm | - | - | - |
| 1777963224 | 22.78° C | 54% | 1009.2 hPa | 0 mm | - | - | - |
| 1777959620 | 25° C | 27% | 1009.3 hPa | 0 mm | - | - | - |
| 1777959021 | 25° C | 27% | 1009.2 hPa | 0 mm | - | - | - |
| 1777953621 | 26.67° C | 24% | 1008.9 hPa | 0 mm | - | - | - |
| 1777948822 | 28.33° C | 19% | 1008.5 hPa | 0 mm | - | - | - |
| 1777947046 | 28.89° C | 18% | 1008.2 hPa | 0 mm | - | - | - |
| 1777943421 | 30.56° C | 15% | 1007.5 hPa | 0 mm | - | - | - |
| 1777941671 | 31.67° C | 13% | 1007.6 hPa | 0 mm | - | - | - |
* Rain latest hour (hover to see other rain measurements)
** Current wind speed in m/s (hover to see current wind gust speed)